• Join FlightAware (Why Join?)
  • Login
  • US Flag 
03:06AM EST


 

Airport Tracker/Info


-or-


 

Live Flight TrackerFlight Track Log ✈ N108PT ✈ 04-May-2013 ✈ KBDL - KCDW

Flight Track Log - Related Links

Times and Time Zones

All times are in EDT time to prevent confusion due to time zone crossing. See the N108PT flight status page for this flight to view local times or setup timezone preferences in your user account.

Time Position Orientation Groundspeed Altitude Reporting Facility
EDT Latitude Longitude Course Direction KTS MPH feet Rate Location/Type
10:08PM 41.1625 -73.8582 229° Southwest  Level Estimated
10:09PM 41.1398 -73.8919 228° Southwest  Level Estimated
10:10PM 41.1171 -73.9255 228° Southwest  Level Estimated
10:11PM 41.0944 -73.9591 228° Southwest  Level Estimated
10:12PM 41.0717 -73.9926 228° Southwest  Level Estimated
10:13PM 41.0441 -74.0099 205° Southwest  Level FlightAware Approximate
10:14PM 41.0186 -74.0388 229° Southwest  Level FlightAware Approximate
10:15PM 40.9983 -74.0692 229° Southwest  Level FlightAware Approximate
10:16PM 40.9781 -74.0995 229° Southwest  Level FlightAware Approximate
10:17PM 40.9579 -74.1298 229° Southwest  Level FlightAware Approximate
10:18PM 40.9377 -74.1601 229° Southwest  Level FlightAware Approximate
10:19PM 40.9175 -74.1904 229° Southwest  Level FlightAware Approximate
10:20PM 40.8973 -74.2207 229° Southwest  Level FlightAware Approximate
10:21PM 40.8771 -74.2510 229° Southwest  Level FlightAware Approximate
10:22PM 40.8667 -74.2667 229° Southwest  Level FlightAware Approximate
10:23PM 40.8752 -74.2814 229° Southwest  Level Estimated
10:24PM 40.8752 -74.2814 229° Southwest  Level Estimated
10:25PM 40.8752 -74.2814 229° Southwest  Level Estimated
10:26PM 40.8752 -74.2814 229° Southwest  Level Estimated
10:27PM 40.8752 -74.2814 229° Southwest  Level Estimated
10:28PM 40.8752 -74.2814 229° Southwest  Level Estimated
10:29PM 40.8752 -74.2814 229° Southwest  Level Estimated
10:30PM 40.8752 -74.2814 229° Southwest  Level Estimated
10:31PM 40.8752 -74.2814 229° Southwest  Level Estimated
10:32PM 40.8752 -74.2814 229° Southwest  Level Estimated
10:33PM 40.8752 -74.2814 229° Southwest  Level Estimated
10:34PM 40.8752 -74.2814 229° Southwest  Level Estimated
10:35PM 40.8752 -74.2814 229° Southwest  Level Estimated
10:36PM 40.8752 -74.2814 229° Southwest  Level Estimated
10:37PM 40.8752 -74.2814 229° Southwest  Level Estimated
10:38PM 40.8752 -74.2814 229° Southwest  Level Estimated
10:39PM 40.8752 -74.2814 229° Southwest  Level Estimated
10:40PM 40.8752 -74.2814 229° Southwest  Level Estimated
10:41PM 40.8752 -74.2814 229° Southwest  Level Estimated
10:42PM 40.8752 -74.2814 229° Southwest  Level Estimated
10:43PM 40.8752 -74.2814 229° Southwest  Level Estimated
10:44PM 40.8752 -74.2814 229° Southwest  Level Estimated
10:45PM 40.8752 -74.2814 229° Southwest  Level Estimated
10:46PM 40.8752 -74.2814 229° Southwest  Level Estimated
10:47PM 40.8752 -74.2814 229° Southwest  Level Estimated
10:48PM 40.8752 -74.2814 229° Southwest  Level Estimated
10:49PM 40.8752 -74.2814 229° Southwest  Level Estimated
10:50PM 40.8752 -74.2814 229° Southwest  Level Estimated
10:51PM 40.8752 -74.2814 229° Southwest  Level Estimated
10:52PM 40.8752 -74.2814 229° Southwest  Level Estimated
10:53PM 40.8752 -74.2814 229° Southwest  Level Estimated
10:54PM 40.8752 -74.2814 229° Southwest  Level Estimated
10:55PM 40.8752 -74.2814 229° Southwest  Level Estimated
10:56PM 40.8752 -74.2814 229° Southwest  Level Estimated
10:57PM 40.8752 -74.2814 229° Southwest  Level Estimated
10:58PM 40.8752 -74.2814 229° Southwest  Level Estimated